Time;durP1;ratioP1;P1;durP2;ratioP2;P2;SDS_P1;SDS_P2;PMS_P1;PMS_P2;Temp;Humidity;BMP_temperature;BMP_pressure;BME280_temperature;BME280_humidity;BME280_pressure;Samples;Min_cycle;Max_cycle;Signal;HPM_P1;HPM_P2
2022/03/31 00:02:25;;;;;;;14.30;8.65;;;;;;;3.02;62.89;99548.59;5086598;28;20067;-22
2022/03/31 00:04:50;;;;;;;10.95;7.93;;;;;;;3.03;63.15;99550.34;5083974;28;20043;-22
2022/03/31 00:07:16;;;;;;;11.77;8.23;;;;;;;3.05;62.89;99549.47;5090095;28;20028;-23
2022/03/31 00:09:41;;;;;;;9.05;7.70;;;;;;;3.07;62.81;99552.09;5086499;28;20027;-23
2022/03/31 00:12:07;;;;;;;11.43;7.43;;;;;;;3.08;62.98;99544.25;5089738;28;20032;-22
2022/03/31 00:14:34;;;;;;;10.60;7.97;;;;;;;3.10;62.94;99543.41;5087782;28;20024;-21
2022/03/31 00:16:59;;;;;;;11.75;8.40;;;;;;;3.12;62.85;99539.94;5085624;28;20028;-23
2022/03/31 00:19:24;;;;;;;11.10;8.00;;;;;;;3.15;63.01;99539.94;5089281;28;20470;-22
2022/03/31 00:21:50;;;;;;;9.57;7.32;;;;;;;3.17;63.08;99539.97;5090475;28;20031;-22
2022/03/31 00:24:15;;;;;;;9.55;7.63;;;;;;;3.19;63.03;99523.47;5088232;28;20143;-22
2022/03/31 00:26:41;;;;;;;9.75;7.88;;;;;;;3.21;63.08;99533.88;5089270;28;20020;-22
2022/03/31 00:29:07;;;;;;;9.05;6.75;;;;;;;3.22;63.29;99525.19;5086038;28;20027;-22
2022/03/31 00:31:33;;;;;;;13.65;7.47;;;;;;;3.25;63.57;99529.53;5086890;28;20035;-22
2022/03/31 00:33:58;;;;;;;9.88;6.68;;;;;;;3.26;63.61;99526.06;5086079;28;20020;-22
2022/03/31 00:36:24;;;;;;;10.93;7.80;;;;;;;3.29;63.19;99528.69;5093177;28;20327;-22
2022/03/31 00:41:37;;;;;;;9.13;6.85;;;;;;;3.33;63.89;99527.81;5080192;28;20039;-23
2022/03/31 00:44:03;;;;;;;9.05;6.47;;;;;;;3.35;63.91;99513.06;5092729;28;20121;-22
2022/03/31 00:46:29;;;;;;;9.30;7.15;;;;;;;3.36;63.79;99512.19;5088084;28;20493;-22
2022/03/31 00:48:54;;;;;;;8.70;6.22;;;;;;;3.38;63.50;99506.97;5090629;28;20093;-22
2022/03/31 00:51:20;;;;;;;11.25;7.60;;;;;;;3.39;63.39;99504.38;5091745;28;20538;-23
2022/03/31 00:53:45;;;;;;;9.95;7.72;;;;;;;3.39;63.39;99503.50;5072749;28;20028;-22
2022/03/31 00:56:11;;;;;;;8.20;6.53;;;;;;;3.41;63.44;99505.28;5073790;28;20115;-21
2022/03/31 00:58:37;;;;;;;11.50;8.00;;;;;;;3.44;63.55;99504.41;5089871;28;21334;-22
2022/03/31 01:01:03;;;;;;;9.07;6.82;;;;;;;3.46;63.90;99507.84;5091789;28;20012;-22
2022/03/31 01:03:29;;;;;;;11.05;7.55;;;;;;;3.47;63.38;99493.97;5091375;28;20032;-22
2022/03/31 01:05:55;;;;;;;10.75;6.90;;;;;;;3.50;63.48;99500.94;5089399;28;20254;-22
2022/03/31 01:08:21;;;;;;;11.48;7.50;;;;;;;3.50;63.27;99506.16;5088918;28;20031;-22
2022/03/31 01:10:49;;;;;;;11.00;8.20;;;;;;;3.53;63.76;99509.59;5072181;28;20100;-23
2022/03/31 01:13:14;;;;;;;11.52;7.57;;;;;;;3.54;63.89;99500.06;5091429;28;20036;-22
2022/03/31 01:15:40;;;;;;;12.02;8.95;;;;;;;3.57;63.67;99507.88;5089243;28;20057;-21
2022/03/31 01:18:05;;;;;;;11.68;8.32;;;;;;;3.56;63.96;99504.41;5086032;28;20070;-22
2022/03/31 01:20:33;;;;;;;10.77;8.82;;;;;;;3.57;63.39;99515.72;5073788;28;20043;-23
2022/03/31 01:22:59;;;;;;;10.98;8.20;;;;;;;3.58;63.66;99510.50;5091388;28;20455;-22
2022/03/31 01:25:25;;;;;;;11.98;8.70;;;;;;;3.61;63.48;99506.13;5074276;28;20028;-22
2022/03/31 01:27:51;;;;;;;11.68;9.48;;;;;;;3.63;63.41;99513.09;5091684;28;20040;-21
2022/03/31 01:30:18;;;;;;;11.90;9.25;;;;;;;3.64;63.53;99507.03;5088553;28;20073;-22
2022/03/31 01:32:45;;;;;;;17.02;9.98;;;;;;;3.66;63.66;99505.28;5086870;28;20448;-21
2022/03/31 01:35:11;;;;;;;12.30;9.57;;;;;;;3.67;64.08;99491.34;5090922;28;20051;-22
2022/03/31 01:37:37;;;;;;;15.52;10.98;;;;;;;3.68;63.79;99487.91;5074227;28;20035;-22
2022/03/31 01:40:03;;;;;;;15.38;12.40;;;;;;;3.69;63.97;99492.25;5088155;28;20255;-23
2022/03/31 01:42:29;;;;;;;17.08;11.93;;;;;;;3.71;63.99;99497.47;5090437;28;20038;-22
2022/03/31 01:44:55;;;;;;;20.23;12.25;;;;;;;3.72;63.91;99489.63;5093636;28;20032;-22
2022/03/31 01:47:20;;;;;;;16.27;12.32;;;;;;;3.75;63.85;99495.72;5089892;28;20058;-22
2022/03/31 01:49:46;;;;;;;18.55;12.57;;;;;;;3.74;63.50;99486.16;5090138;28;20621;-22
2022/03/31 01:52:11;;;;;;;19.08;12.77;;;;;;;3.76;64.17;99479.22;5087121;28;20554;-21
2022/03/31 01:54:37;;;;;;;21.10;14.40;;;;;;;3.78;63.67;99477.47;5090613;28;20059;-22
2022/03/31 01:57:03;;;;;;;22.75;14.93;;;;;;;3.78;64.21;99488.78;5088936;28;20024;-22
2022/03/31 01:59:33;;;;;;;22.48;15.32;;;;;;;3.79;64.06;99474.84;5086263;28;20036;-23
2022/03/31 02:01:59;;;;;;;23.83;15.40;;;;;;;3.80;64.06;99470.50;5088523;28;20030;-21
2022/03/31 02:04:24;;;;;;;21.92;14.82;;;;;;;3.82;64.01;99482.69;5090098;28;20028;-22
2022/03/31 02:06:49;;;;;;;23.50;16.05;;;;;;;3.83;63.90;99473.97;5070005;28;20497;-22
2022/03/31 02:09:15;;;;;;;23.52;16.13;;;;;;;3.85;64.46;99473.97;5088856;28;20027;-22
2022/03/31 02:11:41;;;;;;;24.67;17.00;;;;;;;3.86;64.13;99475.72;5087103;28;20134;-22
2022/03/31 02:14:06;;;;;;;23.42;15.43;;;;;;;3.85;64.04;99460.94;5071874;28;20477;-22
2022/03/31 02:16:31;;;;;;;20.90;14.50;;;;;;;3.88;64.31;99471.38;5090577;28;20035;-22
2022/03/31 02:18:57;;;;;;;21.73;14.13;;;;;;;3.88;64.12;99463.53;5069339;28;20020;-22
2022/03/31 02:21:22;;;;;;;22.45;14.43;;;;;;;3.90;63.67;99466.16;5071644;28;20024;-22
2022/03/31 02:23:47;;;;;;;21.98;14.05;;;;;;;3.90;63.98;99464.41;5069783;28;20035;-22
2022/03/31 02:26:13;;;;;;;18.15;14.07;;;;;;;3.91;64.28;99468.75;5087010;28;20034;-22
2022/03/31 02:28:39;;;;;;;20.20;13.95;;;;;;;3.92;64.29;99464.41;5086056;28;20036;-22
2022/03/31 02:31:04;;;;;;;17.15;12.15;;;;;;;3.93;64.04;99467.00;5085292;28;20055;-23
2022/03/31 02:33:30;;;;;;;18.33;13.23;;;;;;;3.93;64.31;99461.78;5086773;28;20085;-22
2022/03/31 02:35:56;;;;;;;18.52;13.57;;;;;;;3.94;63.79;99462.66;5088312;28;20027;-22
2022/03/31 02:38:21;;;;;;;17.55;12.90;;;;;;;3.94;64.34;99450.47;5052308;28;20032;-22
2022/03/31 02:40:47;;;;;;;18.48;12.27;;;;;;;3.94;63.93;99454.84;5086648;28;20078;-21
2022/03/31 02:43:12;;;;;;;16.65;12.48;;;;;;;3.97;63.88;99460.91;5089128;28;20032;-22
2022/03/31 02:45:38;;;;;;;17.80;11.82;;;;;;;3.95;64.05;99460.06;5089194;28;20059;-21
2022/03/31 02:48:04;;;;;;;15.20;12.30;;;;;;;3.96;64.32;99456.56;5083874;28;20466;-23
2022/03/31 02:50:29;;;;;;;16.88;11.40;;;;;;;3.97;64.26;99450.47;5087145;28;20115;-22
2022/03/31 02:55:39;;;;;;;17.15;12.63;;;;;;;3.95;64.71;99444.41;5089300;28;20512;-23
2022/03/31 02:58:05;;;;;;;16.15;12.20;;;;;;;3.94;64.17;99440.03;5088765;28;20032;-22
2022/03/31 03:00:33;;;;;;;15.68;12.02;;;;;;;3.93;64.38;99440.03;5090581;28;20028;-22
2022/03/31 03:02:59;;;;;;;18.17;12.57;;;;;;;3.92;64.14;99435.69;5094813;28;20031;-22
2022/03/31 03:05:25;;;;;;;14.82;11.48;;;;;;;3.92;64.55;99440.91;5092442;28;20110;-22
2022/03/31 03:07:50;;;;;;;17.50;11.90;;;;;;;3.90;64.29;99443.53;5090303;28;20042;-22
2022/03/31 03:10:16;;;;;;;16.17;11.82;;;;;;;3.89;64.20;99439.19;5093364;28;20035;-21
2022/03/31 03:12:42;;;;;;;18.73;11.60;;;;;;;3.89;64.29;99446.13;5086084;28;20497;-22
2022/03/31 03:15:11;;;;;;;14.05;10.57;;;;;;;3.85;63.85;99425.28;5089020;28;20020;-22
2022/03/31 03:17:45;;;;;;;15.80;11.70;;;;;;;3.84;64.23;99435.72;5088762;28;20028;-22
2022/03/31 03:20:13;;;;;;;14.70;11.27;;;;;;;3.83;64.00;99428.75;5088784;28;20141;-22
2022/03/31 03:22:41;;;;;;;15.27;11.90;;;;;;;3.82;64.57;99434.84;5088986;28;20487;-22
2022/03/31 03:25:07;;;;;;;14.65;10.63;;;;;;;3.78;64.50;99420.06;5088274;28;20041;-22
2022/03/31 03:27:33;;;;;;;13.40;11.15;;;;;;;3.77;64.30;99428.78;5088323;28;20908;-22
2022/03/31 03:29:58;;;;;;;14.02;10.48;;;;;;;3.75;64.30;99425.28;5085340;28;20066;-22
2022/03/31 03:32:24;;;;;;;13.60;10.75;;;;;;;3.73;64.35;99420.06;5090700;28;20038;-22
2022/03/31 03:34:49;;;;;;;14.93;11.18;;;;;;;3.71;64.23;99422.69;5066477;28;20035;-23
2022/03/31 03:37:15;;;;;;;14.77;11.05;;;;;;;3.69;64.21;99416.63;5067721;28;20304;-22
2022/03/31 03:39:40;;;;;;;13.27;10.18;;;;;;;3.67;64.30;99417.50;5084855;28;20028;-22
2022/03/31 03:42:07;;;;;;;15.48;11.48;;;;;;;3.64;64.31;99418.38;5088345;28;20020;-22
2022/03/31 03:44:32;;;;;;;13.05;9.55;;;;;;;3.62;63.94;99425.31;5083759;28;20176;-22
2022/03/31 03:46:58;;;;;;;13.88;10.82;;;;;;;3.59;64.01;99423.56;5085893;28;20152;-23
2022/03/31 03:49:23;;;;;;;13.60;9.40;;;;;;;3.56;63.99;99423.56;5090782;28;20032;-22
2022/03/31 03:51:49;;;;;;;13.80;9.93;;;;;;;3.54;64.14;99427.91;5091574;28;20020;-22
2022/03/31 03:54:15;;;;;;;10.98;9.30;;;;;;;3.51;64.45;99427.06;5087530;28;20679;-22
2022/03/31 03:56:40;;;;;;;12.45;9.43;;;;;;;3.49;64.20;99428.78;5090287;28;20027;-22
2022/03/31 03:59:06;;;;;;;14.30;9.30;;;;;;;3.46;64.20;99430.53;5083755;28;20698;-23
2022/03/31 04:01:31;;;;;;;13.55;9.00;;;;;;;3.44;64.21;99432.25;5085856;28;20099;-22
2022/03/31 04:03:59;;;;;;;13.30;9.00;;;;;;;3.43;64.33;99424.44;5089074;28;20482;-23
2022/03/31 04:06:25;;;;;;;11.38;8.63;;;;;;;3.41;64.17;99427.06;5086222;28;20079;-22
2022/03/31 04:08:51;;;;;;;11.23;8.85;;;;;;;3.39;64.50;99423.56;5085453;28;20032;-22
2022/03/31 04:11:16;;;;;;;13.57;9.00;;;;;;;3.39;64.24;99423.56;5086663;28;20032;-22
2022/03/31 04:13:42;;;;;;;9.70;8.50;;;;;;;3.37;64.31;99419.25;5087705;28;20019;-22
2022/03/31 04:16:08;;;;;;;11.07;8.60;;;;;;;3.34;64.76;99420.97;5088169;28;20062;-23
2022/03/31 04:18:33;;;;;;;12.25;8.20;;;;;;;3.32;64.57;99417.50;5088534;28;20020;-23
2022/03/31 04:21:02;;;;;;;11.02;8.30;;;;;;;3.32;64.46;99416.63;5089259;28;20424;-22
2022/03/31 04:23:28;;;;;;;9.80;8.27;;;;;;;3.31;64.85;99423.56;5095999;28;20139;-22
2022/03/31 04:25:53;;;;;;;10.07;7.63;;;;;;;3.31;64.56;99420.09;5059882;28;20023;-22
2022/03/31 04:28:19;;;;;;;10.32;7.95;;;;;;;3.30;64.87;99419.22;5090308;28;20027;-22
2022/03/31 04:30:44;;;;;;;11.63;7.57;;;;;;;3.29;64.56;99422.72;5088419;28;20023;-22
2022/03/31 04:33:10;;;;;;;9.63;7.57;;;;;;;3.28;64.73;99430.53;5087052;28;20103;-22
2022/03/31 04:35:36;;;;;;;8.40;6.80;;;;;;;3.27;64.99;99419.22;5087140;28;20036;-22
2022/03/31 04:38:03;;;;;;;9.43;7.10;;;;;;;3.26;64.93;99419.22;5085758;28;20067;-22
2022/03/31 04:40:28;;;;;;;9.82;7.28;;;;;;;3.24;65.09;99415.75;5085219;28;20119;-22
2022/03/31 04:42:54;;;;;;;10.35;7.43;;;;;;;3.26;64.59;99427.03;5081746;28;20127;-22
2022/03/31 04:45:20;;;;;;;8.55;6.93;;;;;;;3.25;64.69;99422.69;5085803;28;20074;-22
2022/03/31 04:47:46;;;;;;;10.25;7.82;;;;;;;3.25;64.47;99422.69;5084119;28;20039;-22
2022/03/31 04:50:12;;;;;;;9.35;7.45;;;;;;;3.24;64.70;99413.16;5087061;28;20518;-22
2022/03/31 04:52:38;;;;;;;10.73;6.53;;;;;;;3.23;64.85;99417.47;5086720;28;20103;-22
2022/03/31 04:55:04;;;;;;;10.10;7.68;;;;;;;3.23;64.66;99421.84;5085478;28;20107;-22
2022/03/31 04:57:30;;;;;;;10.52;7.63;;;;;;;3.20;64.75;99423.56;5066643;28;20476;-22
2022/03/31 04:59:55;;;;;;;10.35;7.57;;;;;;;3.21;64.87;99422.69;5068887;28;20038;-23
2022/03/31 05:02:20;;;;;;;10.45;7.18;;;;;;;3.19;64.99;99432.25;5085365;28;20032;-23
2022/03/31 05:04:46;;;;;;;9.38;7.63;;;;;;;3.21;64.86;99427.91;5086389;28;20024;-22
2022/03/31 05:07:11;;;;;;;9.50;7.70;;;;;;;3.21;65.16;99424.44;5086235;28;20027;-22
2022/03/31 05:09:37;;;;;;;14.98;7.80;;;;;;;3.19;64.81;99432.25;5087859;28;20566;-22
2022/03/31 05:12:05;;;;;;;10.30;7.30;;;;;;;3.19;64.99;99427.03;5083766;28;20553;-23
2022/03/31 05:14:31;;;;;;;10.13;7.85;;;;;;;3.18;65.18;99435.75;5086683;28;20138;-22
2022/03/31 05:16:58;;;;;;;12.25;7.68;;;;;;;3.19;64.93;99427.03;5085277;28;20437;-22
2022/03/31 05:19:24;;;;;;;12.10;7.60;;;;;;;3.18;64.94;99422.72;5087433;28;20028;-22
2022/03/31 05:21:49;;;;;;;11.55;7.68;;;;;;;3.18;64.76;99427.03;5089644;28;20015;-22
2022/03/31 05:24:15;;;;;;;9.73;7.95;;;;;;;3.19;64.58;99423.56;5092464;28;20063;-22
2022/03/31 05:26:41;;;;;;;14.95;8.65;;;;;;;3.17;64.60;99420.94;5074064;28;20028;-22
2022/03/31 05:29:07;;;;;;;10.88;8.55;;;;;;;3.19;65.00;99420.94;5095589;28;20493;-22
2022/03/31 05:31:32;;;;;;;11.30;8.32;;;;;;;3.18;65.03;99420.09;5094519;28;20085;-22
2022/03/31 05:33:58;;;;;;;9.13;8.20;;;;;;;3.19;65.00;99423.56;5096084;28;20492;-23
2022/03/31 05:36:23;;;;;;;10.52;7.93;;;;;;;3.18;65.22;99414.91;5089816;28;21584;-22
2022/03/31 05:38:49;;;;;;;14.43;9.68;;;;;;;3.19;64.75;99423.56;5091132;28;20063;-22
2022/03/31 05:41:14;;;;;;;12.57;9.25;;;;;;;3.16;65.00;99421.81;5091838;28;20031;-22
2022/03/31 05:43:40;;;;;;;11.48;8.02;;;;;;;3.18;65.07;99414.00;5090867;28;20023;-22
2022/03/31 05:46:05;;;;;;;12.60;9.45;;;;;;;3.17;65.05;99418.34;5090305;28;20024;-22
2022/03/31 05:48:31;;;;;;;14.88;9.68;;;;;;;3.17;65.00;99418.34;5093210;28;20486;-22
2022/03/31 05:50:56;;;;;;;11.93;10.15;;;;;;;3.18;64.97;99420.09;5072257;28;20040;-22
2022/03/31 05:53:22;;;;;;;15.20;9.82;;;;;;;3.19;65.05;99420.94;5071493;28;20028;-22
2022/03/31 05:55:47;;;;;;;12.98;9.65;;;;;;;3.19;65.17;99421.84;5091563;28;20020;-22
2022/03/31 05:58:13;;;;;;;12.35;9.40;;;;;;;3.19;65.29;99429.66;5091423;28;20020;-23
2022/03/31 06:00:39;;;;;;;16.25;10.35;;;;;;;3.20;65.35;99427.91;5091033;28;20016;-22
2022/03/31 06:03:06;;;;;;;13.45;9.88;;;;;;;3.20;65.01;99428.78;5092460;28;20016;-22
2022/03/31 06:05:32;;;;;;;15.32;10.50;;;;;;;3.19;64.92;99427.03;5092006;28;20099;-22
2022/03/31 06:07:58;;;;;;;12.55;10.18;;;;;;;3.20;65.20;99431.38;5089962;28;20444;-22
2022/03/31 06:10:23;;;;;;;16.63;11.15;;;;;;;3.20;65.00;99428.78;5093495;28;20098;-22
2022/03/31 06:12:49;;;;;;;15.05;10.25;;;;;;;3.21;65.00;99429.66;5086667;28;20355;-22
2022/03/31 06:15:15;;;;;;;15.88;10.55;;;;;;;3.21;65.32;99429.66;5089518;28;20098;-22
2022/03/31 06:17:42;;;;;;;15.13;11.40;;;;;;;3.20;65.03;99434.00;5089459;28;20158;-23
2022/03/31 06:20:09;;;;;;;17.00;11.52;;;;;;;3.21;65.43;99433.09;5094885;28;20529;-22
2022/03/31 06:22:34;;;;;;;14.18;10.38;;;;;;;3.22;64.94;99431.38;5089856;28;20024;-22
2022/03/31 06:25:00;;;;;;;11.32;10.02;;;;;;;3.22;65.11;99441.81;5089204;28;20019;-22
2022/03/31 06:27:25;;;;;;;14.32;11.63;;;;;;;3.24;65.02;99437.47;5088570;28;20032;-22
2022/03/31 06:29:52;;;;;;;15.73;11.90;;;;;;;3.25;65.25;99441.81;5093238;28;20039;-22
2022/03/31 06:32:18;;;;;;;15.73;11.35;;;;;;;3.26;65.42;99442.66;5069481;28;20024;-21
2022/03/31 06:34:43;;;;;;;15.43;12.30;;;;;;;3.26;65.18;99447.88;5091843;28;20023;-22
2022/03/31 06:37:09;;;;;;;14.15;11.43;;;;;;;3.27;65.25;99449.66;5087230;28;20031;-23
2022/03/31 06:39:34;;;;;;;15.70;11.27;;;;;;;3.27;65.40;99441.81;5092055;28;20026;-22
2022/03/31 06:42:01;;;;;;;14.30;11.45;;;;;;;3.28;65.45;99440.94;5088596;28;20034;-22
2022/03/31 06:44:26;;;;;;;17.45;13.13;;;;;;;3.26;65.12;99438.34;5088415;28;20039;-22
2022/03/31 06:46:52;;;;;;;17.85;13.68;;;;;;;3.30;65.18;99440.06;5089651;28;20046;-22
2022/03/31 06:49:18;;;;;;;17.75;12.13;;;;;;;3.30;65.16;99440.06;5089265;28;20028;-23
2022/03/31 06:51:44;;;;;;;19.48;12.82;;;;;;;3.32;65.34;99440.06;5087319;28;20024;-23
2022/03/31 06:54:09;;;;;;;17.83;13.27;;;;;;;3.33;65.19;99434.00;5094587;28;20027;-22
2022/03/31 06:56:35;;;;;;;18.10;13.52;;;;;;;3.34;65.50;99430.53;5091424;28;20537;-22
2022/03/31 06:59:02;;;;;;;23.55;13.27;;;;;;;3.36;65.31;99431.38;5072158;28;20028;-23
2022/03/31 07:01:28;;;;;;;19.48;13.77;;;;;;;3.36;65.40;99418.34;5091694;28;20016;-22
2022/03/31 07:03:53;;;;;;;19.10;13.85;;;;;;;3.39;65.63;99426.19;5088363;28;20024;-22
2022/03/31 07:06:18;;;;;;;20.23;14.90;;;;;;;3.40;64.95;99425.31;5089207;28;20479;-22
2022/03/31 07:08:44;;;;;;;19.42;14.45;;;;;;;3.42;65.50;99427.91;5091709;28;20024;-21
2022/03/31 07:11:10;;;;;;;26.80;14.82;;;;;;;3.44;65.16;99429.66;5088736;28;20546;-22
2022/03/31 07:13:36;;;;;;;20.92;14.50;;;;;;;3.45;65.50;99431.41;5087405;28;20031;-22
2022/03/31 07:16:02;;;;;;;19.08;14.70;;;;;;;3.49;65.11;99428.78;5085956;28;20015;-22
2022/03/31 07:18:28;;;;;;;22.77;15.13;;;;;;;3.46;65.74;99422.72;5089883;28;20035;-22
2022/03/31 07:20:53;;;;;;;20.52;14.90;;;;;;;3.50;65.25;99425.31;5089690;28;20297;-22
2022/03/31 07:23:20;;;;;;;26.48;17.05;;;;;;;3.50;65.71;99425.31;5089847;28;20035;-22
2022/03/31 07:25:46;;;;;;;20.60;15.98;;;;;;;3.53;65.85;99425.31;5090015;28;20062;-22
2022/03/31 07:28:11;;;;;;;23.50;16.55;;;;;;;3.56;65.12;99430.50;5090629;28;20477;-22
2022/03/31 07:30:37;;;;;;;23.42;16.70;;;;;;;3.58;65.41;99434.00;5072473;28;20036;-22
2022/03/31 07:33:03;;;;;;;21.27;15.18;;;;;;;3.61;65.42;99427.91;5088064;28;20478;-22
2022/03/31 07:35:31;;;;;;;23.27;16.15;;;;;;;3.63;64.82;99432.25;5090503;28;20069;-22
2022/03/31 07:37:56;;;;;;;26.92;17.58;;;;;;;3.64;65.74;99428.81;5090873;28;20121;-22
2022/03/31 07:40:23;;;;;;;24.70;16.92;;;;;;;3.66;65.95;99429.66;5090461;28;20023;-22
2022/03/31 07:42:49;;;;;;;27.02;17.48;;;;;;;3.66;65.86;99431.38;5085015;28;20032;-23
2022/03/31 07:45:15;;;;;;;24.17;16.33;;;;;;;3.70;64.96;99420.94;5088053;28;20016;-22
2022/03/31 07:47:41;;;;;;;22.45;16.73;;;;;;;3.72;65.05;99421.84;5092271;28;20032;-22
2022/03/31 07:50:09;;;;;;;22.40;16.88;;;;;;;3.75;65.68;99422.69;5085821;28;20572;-22
2022/03/31 07:52:38;;;;;;;25.45;17.73;;;;;;;3.76;65.66;99416.63;5085718;28;20030;-22
2022/03/31 07:55:04;;;;;;;24.15;17.33;;;;;;;3.77;66.33;99416.59;5089880;28;20022;-22
2022/03/31 07:57:30;;;;;;;22.67;16.42;;;;;;;3.82;66.48;99408.75;5087020;28;20059;-22
2022/03/31 07:59:56;;;;;;;21.77;15.32;;;;;;;3.84;65.69;99414.88;5090928;28;20055;-23
2022/03/31 08:02:23;;;;;;;26.70;17.45;;;;;;;3.88;65.78;99419.19;5074022;28;20034;-23
2022/03/31 08:04:48;;;;;;;22.55;16.48;;;;;;;3.90;65.65;99420.03;5084151;28;20107;-22
2022/03/31 08:07:14;;;;;;;21.42;16.17;;;;;;;3.92;66.10;99413.09;5070893;28;20111;-22
2022/03/31 08:09:39;;;;;;;23.48;15.65;;;;;;;3.94;65.79;99411.34;5088292;28;20103;-22
2022/03/31 08:12:06;;;;;;;23.35;16.48;;;;;;;3.98;65.63;99412.22;5087146;28;20032;-21
2022/03/31 08:14:32;;;;;;;20.95;15.80;;;;;;;4.00;65.89;99413.06;5094586;28;20085;-22
2022/03/31 08:16:57;;;;;;;22.75;17.05;;;;;;;4.02;66.09;99413.06;5070393;28;20454;-23
2022/03/31 08:19:23;;;;;;;22.80;16.15;;;;;;;4.03;65.74;99414.81;5095533;28;20024;-22
2022/03/31 08:21:49;;;;;;;19.30;15.85;;;;;;;4.07;65.67;99416.56;5093715;28;20535;-22
2022/03/31 08:24:15;;;;;;;24.27;15.25;;;;;;;4.10;65.37;99421.75;5089980;28;20547;-22
2022/03/31 08:26:42;;;;;;;22.83;16.83;;;;;;;4.10;65.21;99417.41;5075389;28;20020;-23
2022/03/31 08:29:08;;;;;;;20.50;15.82;;;;;;;4.13;65.99;99421.72;5085557;28;20043;-22
2022/03/31 08:31:34;;;;;;;18.90;15.48;;;;;;;4.14;65.23;99414.78;5091362;28;20024;-21
2022/03/31 08:34:00;;;;;;;15.73;13.90;;;;;;;4.18;65.23;99421.72;5087033;28;20047;-21
2022/03/31 08:36:26;;;;;;;20.65;14.57;;;;;;;4.20;65.62;99418.25;5087512;28;20051;-22
2022/03/31 08:38:51;;;;;;;20.10;14.57;;;;;;;4.20;65.46;99410.41;5085547;28;20079;-22
2022/03/31 08:41:18;;;;;;;21.42;15.52;;;;;;;4.23;65.40;99418.22;5089403;28;20042;-22
2022/03/31 08:43:44;;;;;;;19.50;14.93;;;;;;;4.28;65.22;99414.72;5086420;28;20330;-22
2022/03/31 08:46:10;;;;;;;20.60;14.35;;;;;;;4.30;65.37;99407.78;5088365;28;20108;-22
2022/03/31 08:48:37;;;;;;;20.92;14.38;;;;;;;4.33;65.26;99408.63;5089458;28;20147;-22
2022/03/31 08:51:04;;;;;;;20.23;15.50;;;;;;;4.36;65.06;99412.97;5086051;28;20023;-22
2022/03/31 08:53:30;;;;;;;22.08;15.57;;;;;;;4.40;64.83;99421.66;5087346;28;20024;-22
2022/03/31 08:55:55;;;;;;;22.42;15.48;;;;;;;4.42;65.30;99412.94;5057247;28;20084;-22
2022/03/31 08:58:21;;;;;;;20.52;15.88;;;;;;;4.45;65.04;99418.16;5090436;28;20016;-22
2022/03/31 09:00:46;;;;;;;18.55;14.65;;;;;;;4.48;65.25;99410.31;5092908;28;20020;-22
2022/03/31 09:03:12;;;;;;;20.85;15.82;;;;;;;4.52;65.46;99412.88;5075703;28;20491;-23
2022/03/31 09:05:41;;;;;;;19.35;14.85;;;;;;;4.57;64.92;99421.59;5070447;28;20020;-22
2022/03/31 09:08:09;;;;;;;19.52;15.05;;;;;;;4.59;64.80;99420.69;5092894;28;20016;-22
2022/03/31 09:10:44;;;;;;;21.83;14.63;;;;;;;4.63;64.78;99416.31;5089722;28;20061;-22
2022/03/31 09:13:23;;;;;;;22.33;15.02;;;;;;;4.69;64.69;99418.91;5066447;28;22048;-22
2022/03/31 09:15:50;;;;;;;20.92;15.25;;;;;;;4.72;64.97;99416.28;5092737;28;20027;-22
2022/03/31 09:18:20;;;;;;;24.10;15.05;;;;;;;4.76;64.80;99414.50;5090780;28;20081;-21
2022/03/31 09:20:46;;;;;;;21.90;13.95;;;;;;;4.81;65.24;99415.38;5073065;28;20107;-22
2022/03/31 09:23:21;;;;;;;19.27;14.68;;;;;;;4.85;64.88;99411.88;5091295;28;20470;-21
2022/03/31 09:25:47;;;;;;;17.98;14.73;;;;;;;4.91;64.79;99415.31;5091716;28;20421;-22
2022/03/31 09:28:24;;;;;;;19.88;14.15;;;;;;;4.96;65.10;99413.53;5090602;28;20077;-22
2022/03/31 09:30:55;;;;;;;16.95;13.35;;;;;;;5.00;64.87;99410.88;5092264;28;20101;-22
2022/03/31 09:33:35;;;;;;;16.90;13.75;;;;;;;5.05;64.12;99397.81;5091737;28;20051;-22
2022/03/31 09:36:12;;;;;;;15.02;11.35;;;;;;;5.10;64.76;99397.78;5088908;28;20027;-21
2022/03/31 09:38:40;;;;;;;15.82;12.93;;;;;;;5.16;64.58;99396.88;5088339;28;20028;-22
2022/03/31 09:41:17;;;;;;;13.70;11.90;;;;;;;5.22;64.71;99395.06;5069881;28;20077;-22
2022/03/31 09:43:42;;;;;;;15.40;12.43;;;;;;;5.27;64.07;99405.50;5087351;28;20023;-22
2022/03/31 09:46:38;;;;;;;15.38;11.40;;;;;;;5.34;64.04;99399.31;5092540;28;20676;-22
2022/03/31 09:49:24;;;;;;;16.98;12.05;;;;;;;5.42;63.84;99401.88;5066587;28;20032;-23
2022/03/31 09:51:54;;;;;;;13.10;11.30;;;;;;;5.47;63.01;99407.94;5073802;28;20348;-21
2022/03/31 09:54:26;;;;;;;14.00;10.73;;;;;;;5.54;63.47;99410.50;5087844;28;20023;-22
2022/03/31 09:56:56;;;;;;;14.77;10.75;;;;;;;5.60;63.14;99413.91;5073260;28;20039;-22
2022/03/31 09:59:29;;;;;;;15.10;11.85;;;;;;;5.64;62.82;99414.78;5090478;28;20478;-22
2022/03/31 10:01:55;;;;;;;16.27;10.95;;;;;;;5.65;63.01;99408.66;5090952;28;20539;-22
2022/03/31 10:04:21;;;;;;;17.20;11.38;;;;;;;5.69;62.74;99410.34;5090349;28;20020;-22
2022/03/31 10:06:46;;;;;;;12.90;11.05;;;;;;;5.74;62.57;99413.78;5086842;28;20024;-21
2022/03/31 10:09:12;;;;;;;13.90;11.32;;;;;;;5.76;62.18;99406.81;5088478;28;20024;-21
2022/03/31 10:11:40;;;;;;;16.95;11.75;;;;;;;5.81;62.20;99409.38;5090125;28;20517;-22
2022/03/31 10:14:22;;;;;;;14.10;11.55;;;;;;;5.84;62.23;99398.84;5069680;28;20028;-21
2022/03/31 10:17:25;;;;;;;15.38;11.25;;;;;;;5.89;62.27;99394.47;5089754;28;20563;-22
2022/03/31 10:19:50;;;;;;;12.80;11.23;;;;;;;5.90;62.05;99396.19;5030644;28;20478;-22
2022/03/31 10:25:04;;;;;;;14.50;11.52;;;;;;;5.96;62.52;99387.41;5090222;28;20038;-22
2022/03/31 10:27:41;;;;;;;14.55;12.00;;;;;;;5.96;62.05;99386.53;5072039;28;20089;-22
2022/03/31 10:30:20;;;;;;;15.73;11.52;;;;;;;5.99;61.62;99391.75;5091800;28;20032;-22
2022/03/31 10:33:08;;;;;;;13.82;9.85;;;;;;;6.01;61.69;99380.34;5073719;28;20107;-23
2022/03/31 10:35:38;;;;;;;13.55;10.88;;;;;;;6.03;61.48;99389.13;5090827;28;20027;-22
2022/03/31 10:38:33;;;;;;;14.35;10.73;;;;;;;6.07;61.78;99378.59;5078475;28;20031;-22
2022/03/31 10:41:05;;;;;;;17.75;10.82;;;;;;;6.08;61.08;99386.44;5092599;28;20176;-22
2022/03/31 10:43:32;;;;;;;13.70;10.80;;;;;;;6.08;61.30;99385.56;5099636;28;20007;-22
2022/03/31 10:46:01;;;;;;;15.50;10.52;;;;;;;6.12;60.95;99382.03;5098277;28;20032;-22
2022/03/31 10:48:29;;;;;;;14.13;10.40;;;;;;;6.12;61.05;99384.66;5089461;28;20032;-22
2022/03/31 10:51:06;;;;;;;14.70;10.68;;;;;;;6.13;61.01;99384.63;5090057;28;20024;-22
2022/03/31 10:53:35;;;;;;;11.57;9.23;;;;;;;6.14;60.86;99382.91;5069392;28;20552;-22
2022/03/31 10:56:02;;;;;;;12.95;9.88;;;;;;;6.14;60.86;99375.88;5073852;28;20115;-22
2022/03/31 10:58:29;;;;;;;15.32;10.30;;;;;;;6.18;61.01;99375.84;5077061;28;20039;-22
2022/03/31 11:00:57;;;;;;;11.43;9.55;;;;;;;6.19;61.19;99373.22;5102442;28;20051;-22
2022/03/31 11:03:23;;;;;;;12.57;10.68;;;;;;;6.21;61.34;99375.81;5103820;28;20020;-22
2022/03/31 11:05:49;;;;;;;13.23;10.68;;;;;;;6.22;61.06;99359.22;5092111;28;20023;-22
2022/03/31 11:08:19;;;;;;;15.25;11.20;;;;;;;6.21;60.89;99376.69;5089272;28;20047;-22
2022/03/31 11:10:50;;;;;;;13.95;11.00;;;;;;;6.23;60.83;99369.69;5089692;28;20035;-21
2022/03/31 11:13:17;;;;;;;11.60;9.43;;;;;;;6.25;60.38;99367.94;5089306;28;20077;-22
2022/03/31 11:15:45;;;;;;;15.15;10.70;;;;;;;6.24;60.89;99373.19;5073951;28;20054;-22
2022/03/31 11:18:11;;;;;;;13.68;10.80;;;;;;;6.26;60.54;99367.03;5088763;28;20103;-22
2022/03/31 11:20:37;;;;;;;13.30;10.57;;;;;;;6.27;60.60;99366.13;5071096;28;20278;-22
2022/03/31 11:23:03;;;;;;;15.38;10.27;;;;;;;6.31;60.63;99360.88;5073042;28;20394;-21
2022/03/31 11:25:30;;;;;;;15.45;10.80;;;;;;;6.33;60.86;99369.59;5090187;28;20030;-22
2022/03/31 11:27:58;;;;;;;13.13;10.30;;;;;;;6.32;60.37;99359.97;5089086;28;20081;-21
2022/03/31 11:30:32;;;;;;;15.45;10.70;;;;;;;6.33;60.97;99364.34;5068944;28;20520;-22
2022/03/31 11:32:58;;;;;;;13.30;10.98;;;;;;;6.35;60.48;99365.19;5090481;28;20040;-22
2022/03/31 11:35:26;;;;;;;18.90;11.10;;;;;;;6.33;60.70;99354.72;5086609;28;20612;-22
2022/03/31 11:38:05;;;;;;;14.23;10.68;;;;;;;6.35;60.11;99359.94;5072989;28;20183;-22